Washington, Texas
Current Conditions -  °F | °C
As of 9:15 AM on Wednesday 26 Nov 2014 (Local Time) from K11R Reporting Station
Clear Clear  
Wind Chill: 58°   Ceiling: Unl
Heat Index: 58°   Visibility: 10mi
Dew Point: 35°   Wind: 10mph
Humidity: 42%   Direction: 230°SW
Pressure: 30.24"   Gusts: 17mph
Location:  30.33°N, 96.16°W
Report Text: K11R 261515Z AUTO 23009G15KT 10SM CLR 14/01 A3024 RMK AO2 T01420014
Loading
Personal Weather Stations






























Interactive Weather Map New forecast layout! Learn more

10-Day Weather Forecast

Advertisements
Track Severe Weather on mobile